Time;durP1;ratioP1;P1;durP2;ratioP2;P2;SDS_P1;SDS_P2;PMS_P1;PMS_P2;Temp;Humidity;BMP_temperature;BMP_pressure;BME280_temperature;BME280_humidity;BME280_pressure;Samples;Min_cycle;Max_cycle;Signal;HPM_P1;HPM_P2
2022/04/29 00:00:43;;;;;;;21.02;9.77;;;8.70;93.10;;;;;;5084176;28;20035;-75
2022/04/29 00:03:11;;;;;;;23.60;11.57;;;8.70;93.20;;;;;;5083016;28;20031;-76
2022/04/29 00:05:40;;;;;;;19.30;10.77;;;8.70;93.20;;;;;;5084393;28;20044;-75
2022/04/29 00:08:08;;;;;;;19.00;11.07;;;8.70;93.20;;;;;;5066369;28;20023;-75
2022/04/29 00:10:34;;;;;;;19.25;11.18;;;8.60;93.30;;;;;;5066131;28;20024;-75
2022/04/29 00:13:02;;;;;;;18.92;10.73;;;8.50;93.40;;;;;;5066332;28;20025;-77
2022/04/29 00:15:29;;;;;;;20.58;10.70;;;8.50;93.50;;;;;;5065766;28;20042;-75
2022/04/29 00:17:55;;;;;;;20.23;11.23;;;8.40;93.60;;;;;;5082802;28;20050;-76
2022/04/29 00:20:21;;;;;;;18.80;11.25;;;8.40;93.70;;;;;;5065934;28;20024;-76
2022/04/29 00:22:47;;;;;;;19.10;10.88;;;8.40;93.70;;;;;;5063870;28;20308;-76
2022/04/29 00:25:13;;;;;;;19.90;10.90;;;8.40;93.80;;;;;;5082768;28;20204;-75
2022/04/29 00:27:40;;;;;;;18.60;10.88;;;8.40;93.80;;;;;;5065832;28;20355;-75
2022/04/29 00:30:08;;;;;;;23.13;10.82;;;8.30;93.90;;;;;;5065792;28;20029;-76
2022/04/29 00:32:34;;;;;;;16.73;11.05;;;8.30;94.10;;;;;;5066089;28;20254;-75
2022/04/29 00:35:00;;;;;;;23.08;11.02;;;8.30;94.20;;;;;;5083713;28;20039;-75
2022/04/29 00:37:26;;;;;;;23.05;11.52;;;8.30;94.30;;;;;;5082610;28;20013;-76
2022/04/29 00:39:52;;;;;;;17.45;10.50;;;8.20;94.30;;;;;;5083741;28;20028;-76
2022/04/29 00:42:23;;;;;;;20.15;11.52;;;8.30;94.30;;;;;;5065556;28;20032;-76
2022/04/29 00:44:49;;;;;;;20.80;10.73;;;8.20;94.40;;;;;;5066420;28;20020;-76
2022/04/29 00:47:20;;;;;;;20.50;11.07;;;8.30;94.40;;;;;;5082556;28;20211;-76
2022/04/29 00:49:47;;;;;;;22.73;11.27;;;8.20;94.40;;;;;;5083192;28;20325;-75
2022/04/29 00:52:17;;;;;;;20.73;10.77;;;8.30;94.50;;;;;;5049183;28;20036;-76
2022/04/29 00:54:49;;;;;;;22.05;11.80;;;8.30;94.50;;;;;;5065447;28;20016;-76
2022/04/29 00:57:22;;;;;;;26.05;11.38;;;8.20;94.70;;;;;;5066221;28;20017;-75
2022/04/29 01:00:05;;;;;;;23.58;11.30;;;8.10;94.90;;;;;;5066414;28;20020;-76
2022/04/29 01:02:31;;;;;;;25.90;11.98;;;8.10;95.00;;;;;;5067642;28;20080;-75
2022/04/29 01:05:03;;;;;;;19.95;11.50;;;8.00;95.20;;;;;;5082560;28;20062;-76
2022/04/29 01:07:30;;;;;;;23.90;11.27;;;8.00;95.30;;;;;;5082489;28;20087;-74
2022/04/29 01:09:56;;;;;;;20.67;11.40;;;8.00;95.40;;;;;;5082511;28;20021;-75
2022/04/29 01:12:25;;;;;;;18.42;11.00;;;8.00;95.40;;;;;;5065418;28;20031;-75
2022/04/29 01:14:54;;;;;;;25.83;11.75;;;8.00;95.40;;;;;;5082391;28;20236;-75
2022/04/29 01:17:20;;;;;;;19.40;11.90;;;8.00;95.50;;;;;;5082230;28;20028;-76
2022/04/29 01:19:46;;;;;;;18.42;10.75;;;8.00;95.50;;;;;;5065191;28;20223;-75
2022/04/29 01:22:12;;;;;;;22.38;12.30;;;8.00;95.40;;;;;;5082183;28;20021;-76
2022/04/29 01:24:38;;;;;;;20.55;11.57;;;8.10;95.40;;;;;;5084886;28;20021;-76
2022/04/29 01:27:12;;;;;;;16.58;11.45;;;8.10;95.40;;;;;;5086687;28;20359;-77
2022/04/29 01:29:41;;;;;;;21.75;11.32;;;8.10;95.30;;;;;;5069255;28;20032;-76
2022/04/29 01:32:09;;;;;;;22.30;11.70;;;8.10;95.40;;;;;;5086512;28;20084;-75
2022/04/29 01:34:35;;;;;;;18.88;11.90;;;8.00;95.60;;;;;;5085637;28;20093;-76
2022/04/29 01:37:01;;;;;;;19.75;12.10;;;8.00;95.70;;;;;;5086633;28;20331;-75
2022/04/29 01:39:27;;;;;;;21.17;11.85;;;8.00;95.90;;;;;;5086236;28;20043;-75
2022/04/29 01:41:53;;;;;;;22.08;11.70;;;7.90;96.00;;;;;;5068535;28;20065;-74
2022/04/29 01:44:18;;;;;;;22.35;11.40;;;7.90;96.10;;;;;;5086470;28;20052;-75
2022/04/29 01:46:44;;;;;;;18.95;11.90;;;7.80;96.20;;;;;;5068171;28;20353;-75
2022/04/29 01:49:10;;;;;;;27.70;13.02;;;7.80;96.40;;;;;;5068199;28;20048;-76
2022/04/29 01:51:35;;;;;;;21.48;11.90;;;7.80;96.50;;;;;;5051787;28;20047;-77
2022/04/29 01:54:01;;;;;;;28.25;13.68;;;7.70;96.60;;;;;;5086086;28;20046;-75
2022/04/29 01:56:34;;;;;;;23.65;12.55;;;7.70;96.70;;;;;;5085321;28;20020;-76
2022/04/29 01:59:01;;;;;;;23.83;12.48;;;7.60;96.80;;;;;;5069310;28;20239;-75
2022/04/29 02:01:28;;;;;;;19.00;11.75;;;7.70;97.00;;;;;;5086386;28;20039;-77
2022/04/29 02:03:54;;;;;;;20.63;12.52;;;7.60;97.00;;;;;;5085147;28;20024;-75
2022/04/29 02:06:21;;;;;;;21.35;12.20;;;7.70;97.00;;;;;;5085144;28;20038;-76
2022/04/29 02:08:46;;;;;;;20.50;12.32;;;7.70;97.00;;;;;;5086058;28;20025;-76
2022/04/29 02:11:12;;;;;;;20.02;12.48;;;7.70;97.10;;;;;;5086015;28;20369;-76
2022/04/29 02:13:38;;;;;;;24.85;12.60;;;7.80;97.00;;;;;;5067923;28;20239;-75
2022/04/29 02:16:04;;;;;;;21.70;11.25;;;7.80;96.90;;;;;;5068330;28;20311;-76
2022/04/29 02:18:30;;;;;;;19.75;12.00;;;7.80;96.90;;;;;;5084960;28;20052;-76
2022/04/29 02:20:56;;;;;;;22.48;12.00;;;7.80;96.90;;;;;;5068227;28;20025;-75
2022/04/29 02:23:22;;;;;;;17.73;11.85;;;7.80;96.90;;;;;;5082425;28;20075;-75
2022/04/29 02:25:47;;;;;;;27.75;12.55;;;7.80;96.90;;;;;;5067755;28;20069;-76
2022/04/29 02:28:13;;;;;;;23.55;12.43;;;7.80;97.00;;;;;;5068038;28;20035;-75
2022/04/29 02:30:40;;;;;;;21.35;12.88;;;7.80;97.10;;;;;;5084492;28;20020;-77
2022/04/29 02:33:07;;;;;;;25.08;12.85;;;7.80;97.10;;;;;;5085546;28;20087;-75
2022/04/29 02:35:33;;;;;;;18.90;11.98;;;7.80;97.10;;;;;;5083923;28;20020;-76
2022/04/29 02:37:59;;;;;;;21.88;12.23;;;7.80;97.10;;;;;;5085595;28;20052;-76
2022/04/29 02:40:25;;;;;;;22.27;12.60;;;7.80;97.50;;;;;;5084371;28;20082;-75
2022/04/29 02:42:51;;;;;;;22.02;12.02;;;7.70;97.40;;;;;;5067711;28;20197;-75
2022/04/29 02:45:16;;;;;;;20.58;11.88;;;7.60;97.60;;;;;;5067522;28;20021;-76
2022/04/29 02:47:42;;;;;;;23.10;12.40;;;7.50;97.90;;;;;;5083980;28;20079;-75
2022/04/29 02:50:08;;;;;;;27.95;12.73;;;7.40;98.30;;;;;;5085233;28;20315;-75
2022/04/29 02:52:34;;;;;;;24.90;12.90;;;7.40;98.40;;;;;;5084122;28;20051;-75
2022/04/29 02:55:00;;;;;;;25.80;12.70;;;7.30;98.40;;;;;;5083862;28;20214;-76
2022/04/29 02:57:26;;;;;;;21.60;12.48;;;7.20;98.50;;;;;;5067309;28;20300;-76
2022/04/29 02:59:52;;;;;;;26.67;12.70;;;7.20;98.60;;;;;;5067259;28;20027;-75
2022/04/29 03:02:17;;;;;;;19.42;12.60;;;7.20;98.60;;;;;;5084099;28;20020;-75
2022/04/29 03:04:43;;;;;;;25.75;12.35;;;7.20;98.70;;;;;;5050670;28;20242;-75
2022/04/29 03:07:09;;;;;;;23.48;13.98;;;7.20;98.70;;;;;;5083846;28;20031;-76
2022/04/29 03:09:34;;;;;;;22.70;13.05;;;7.20;98.90;;;;;;5085076;28;20215;-76
2022/04/29 03:12:00;;;;;;;20.25;13.02;;;7.10;98.90;;;;;;5084314;28;20083;-76
2022/04/29 03:14:26;;;;;;;27.80;13.25;;;7.10;98.90;;;;;;5083775;28;20012;-76
2022/04/29 03:16:52;;;;;;;26.65;12.85;;;7.00;98.80;;;;;;5067062;28;20250;-75
2022/04/29 03:19:18;;;;;;;20.48;13.25;;;7.00;98.80;;;;;;5083539;28;20027;-76
2022/04/29 03:21:43;;;;;;;27.58;13.20;;;7.00;98.90;;;;;;5066803;28;20024;-77
2022/04/29 03:24:09;;;;;;;24.67;12.65;;;7.10;98.90;;;;;;5082698;28;20028;-76
2022/04/29 03:26:35;;;;;;;22.15;12.18;;;7.00;98.70;;;;;;5083263;28;20211;-75
2022/04/29 03:29:02;;;;;;;22.02;12.68;;;6.90;98.70;;;;;;5083521;28;20017;-75
2022/04/29 03:31:27;;;;;;;23.38;12.88;;;6.90;98.70;;;;;;5083425;28;20020;-76
2022/04/29 03:33:53;;;;;;;23.17;12.43;;;6.90;98.80;;;;;;5066338;28;20066;-76
2022/04/29 03:36:18;;;;;;;21.75;12.82;;;6.80;98.80;;;;;;5066859;28;20020;-76
2022/04/29 03:38:44;;;;;;;26.70;12.65;;;6.80;98.80;;;;;;5066601;28;20299;-76
2022/04/29 03:41:12;;;;;;;21.75;12.55;;;6.80;98.90;;;;;;5083100;28;20020;-76
2022/04/29 03:43:38;;;;;;;24.52;12.68;;;6.80;99.00;;;;;;5066562;28;20326;-75
2022/04/29 03:46:05;;;;;;;29.10;13.45;;;6.80;98.90;;;;;;5082173;28;20020;-75
2022/04/29 03:49:35;;;;;;;22.60;13.18;;;6.70;98.90;;;;;;5066413;28;20024;-76
2022/04/29 03:51:17;;;;;;;26.13;13.40;;;6.60;99.00;;;;;;5055682;28;20056;-76
2022/04/29 03:53:43;;;;;;;22.45;13.32;;;6.60;99.10;;;;;;5082978;28;20032;-76
2022/04/29 03:56:08;;;;;;;25.63;14.13;;;6.60;99.30;;;;;;5084162;28;20023;-76
2022/04/29 03:58:34;;;;;;;22.73;13.35;;;6.60;99.30;;;;;;5066458;28;20021;-76
2022/04/29 04:01:00;;;;;;;21.23;13.50;;;6.60;99.30;;;;;;5066258;28;20027;-79
2022/04/29 04:03:25;;;;;;;27.65;13.38;;;6.60;99.30;;;;;;5066319;28;20020;-76
2022/04/29 04:08:37;;;;;;;25.23;13.88;;;6.50;99.40;;;;;;5055520;28;20201;-76
2022/04/29 04:11:02;;;;;;;24.75;14.25;;;6.50;99.50;;;;;;5083934;28;20024;-75
2022/04/29 04:13:28;;;;;;;21.38;13.70;;;6.40;99.70;;;;;;5065999;28;20066;-76
2022/04/29 04:15:53;;;;;;;33.13;13.98;;;6.30;99.80;;;;;;5083214;28;20215;-76
2022/04/29 04:18:19;;;;;;;23.70;13.77;;;6.30;99.90;;;;;;5082846;28;20316;-76
2022/04/29 04:20:47;;;;;;;27.73;14.18;;;6.30;99.90;;;;;;5082834;28;20035;-75
2022/04/29 04:23:13;;;;;;;31.10;15.20;;;6.30;99.90;;;;;;5049687;28;20020;-75
2022/04/29 04:25:39;;;;;;;28.98;15.48;;;6.30;99.90;;;;;;5082541;28;20027;-76
2022/04/29 04:28:04;;;;;;;25.23;13.80;;;6.30;99.90;;;;;;5065961;28;20031;-76
2022/04/29 04:30:30;;;;;;;31.67;14.15;;;6.30;99.90;;;;;;5066238;28;20035;-76
2022/04/29 04:32:56;;;;;;;27.45;14.88;;;6.30;99.90;;;;;;5083793;28;20083;-76
2022/04/29 04:35:21;;;;;;;26.95;14.60;;;6.20;99.80;;;;;;5065811;28;20046;-76
2022/04/29 04:37:48;;;;;;;28.42;14.07;;;6.10;99.90;;;;;;5082781;28;20032;-77
2022/04/29 04:40:14;;;;;;;33.28;14.23;;;6.10;99.90;;;;;;5082681;28;20095;-77
2022/04/29 04:42:44;;;;;;;25.42;13.75;;;6.10;99.90;;;;;;5083631;28;20325;-76
2022/04/29 04:45:10;;;;;;;27.67;13.52;;;6.10;99.90;;;;;;5066058;28;20329;-76
2022/04/29 04:47:35;;;;;;;23.40;14.13;;;6.10;99.90;;;;;;5065677;28;20204;-76
2022/04/29 04:50:01;;;;;;;27.13;13.73;;;6.10;99.90;;;;;;5082558;28;20059;-76
2022/04/29 04:52:27;;;;;;;23.65;13.35;;;6.10;99.90;;;;;;5065621;28;20327;-76
2022/04/29 04:54:52;;;;;;;23.80;13.48;;;6.00;99.90;;;;;;5065695;28;20025;-76
2022/04/29 04:57:18;;;;;;;25.98;13.65;;;6.00;99.90;;;;;;5067067;28;20025;-76
2022/04/29 04:59:44;;;;;;;29.90;14.13;;;6.10;99.90;;;;;;5069591;28;20025;-77
2022/04/29 05:02:09;;;;;;;34.55;14.70;;;6.10;99.90;;;;;;5052847;28;20303;-76
2022/04/29 05:04:36;;;;;;;30.52;13.93;;;6.10;99.90;;;;;;5068898;28;20021;-76
2022/04/29 05:07:03;;;;;;;27.20;13.30;;;6.10;99.90;;;;;;5052941;28;20060;-76
2022/04/29 05:09:29;;;;;;;21.70;12.85;;;6.10;99.90;;;;;;5085791;28;20095;-76
2022/04/29 05:11:54;;;;;;;33.25;15.85;;;6.10;99.90;;;;;;5085842;28;20021;-77
2022/04/29 05:14:20;;;;;;;26.48;14.07;;;6.10;99.90;;;;;;5085445;28;20025;-77
2022/04/29 05:16:45;;;;;;;27.52;13.52;;;6.10;99.90;;;;;;5069320;28;20043;-77
2022/04/29 05:19:11;;;;;;;25.50;14.18;;;6.20;99.90;;;;;;5068826;28;20031;-77
2022/04/29 05:21:37;;;;;;;26.88;14.07;;;6.20;99.90;;;;;;5086389;28;20078;-76
2022/04/29 05:24:02;;;;;;;26.73;14.52;;;6.30;99.90;;;;;;5068262;28;20100;-76
2022/04/29 05:26:28;;;;;;;24.95;14.20;;;6.30;99.90;;;;;;5066848;28;20207;-76
2022/04/29 05:28:54;;;;;;;27.40;14.85;;;6.30;99.90;;;;;;5085370;28;20048;-76
2022/04/29 05:31:20;;;;;;;39.80;15.48;;;6.40;99.90;;;;;;5068785;28;20027;-76
2022/04/29 05:33:46;;;;;;;31.08;15.40;;;6.50;99.90;;;;;;5086087;28;20024;-76
2022/04/29 05:36:12;;;;;;;36.17;14.23;;;6.60;99.90;;;;;;5068715;28;20016;-76
2022/04/29 05:44:09;;;;;;;37.58;15.82;;;6.70;99.90;;;;;;5071410;28;20044;-76
2022/04/29 05:46:35;;;;;;;34.63;15.50;;;6.90;99.90;;;;;;5085048;28;20016;-76
2022/04/29 05:49:02;;;;;;;22.02;14.45;;;7.10;99.90;;;;;;5086265;28;20376;-75
2022/04/29 05:51:28;;;;;;;41.22;15.70;;;7.20;99.90;;;;;;5068335;28;20190;-75
2022/04/29 05:53:54;;;;;;;36.33;17.08;;;7.20;99.90;;;;;;5051125;28;20024;-77
2022/04/29 05:56:19;;;;;;;44.40;15.43;;;7.30;99.90;;;;;;5051081;28;20095;-75
2022/04/29 05:58:45;;;;;;;43.75;16.00;;;7.30;99.90;;;;;;5085256;28;20016;-77
2022/04/29 06:01:11;;;;;;;48.80;18.20;;;7.40;99.90;;;;;;5051713;28;20016;-76
2022/04/29 06:03:37;;;;;;;62.17;17.55;;;7.50;99.90;;;;;;5085990;28;20024;-76
2022/04/29 06:06:03;;;;;;;56.70;18.05;;;7.60;99.90;;;;;;5084637;28;20025;-76
2022/04/29 06:08:29;;;;;;;42.65;16.25;;;7.70;99.90;;;;;;5083748;28;20025;-76
2022/04/29 06:10:54;;;;;;;35.42;14.80;;;7.80;99.90;;;;;;5085889;28;20039;-76
2022/04/29 06:13:20;;;;;;;30.08;13.68;;;8.00;99.60;;;;;;5051298;28;20054;-78
2022/04/29 06:15:46;;;;;;;28.88;14.85;;;8.10;99.10;;;;;;5068149;28;20027;-78
2022/04/29 06:18:12;;;;;;;31.40;14.88;;;8.20;98.70;;;;;;5068212;28;20058;-77
2022/04/29 06:20:37;;;;;;;26.48;13.32;;;8.30;98.60;;;;;;5084879;28;20204;-76
2022/04/29 06:23:04;;;;;;;27.55;13.07;;;8.40;98.60;;;;;;5084893;28;20322;-77
2022/04/29 06:25:30;;;;;;;29.55;13.45;;;8.40;98.50;;;;;;5085279;28;20219;-77
2022/04/29 06:27:55;;;;;;;28.33;13.88;;;8.40;98.40;;;;;;5083248;28;20025;-75
2022/04/29 06:30:21;;;;;;;24.10;13.70;;;8.40;98.50;;;;;;5068018;28;20058;-76
2022/04/29 06:32:47;;;;;;;27.77;14.00;;;8.50;98.50;;;;;;5084574;28;20024;-76
2022/04/29 06:35:13;;;;;;;28.42;13.73;;;8.50;98.50;;;;;;5084161;28;20017;-74
2022/04/29 06:37:39;;;;;;;24.33;13.75;;;8.50;98.60;;;;;;5051478;28;20099;-76
2022/04/29 06:40:06;;;;;;;26.77;12.43;;;8.60;98.70;;;;;;5067645;28;20029;-75
2022/04/29 06:42:42;;;;;;;25.00;12.13;;;8.60;98.80;;;;;;5067693;28;20330;-76
2022/04/29 06:45:08;;;;;;;25.10;12.88;;;8.70;99.00;;;;;;5052029;28;20280;-76
2022/04/29 06:47:34;;;;;;;22.30;12.38;;;8.60;99.40;;;;;;5085011;28;20028;-75
2022/04/29 06:49:59;;;;;;;21.33;12.23;;;8.40;99.90;;;;;;5084329;28;20059;-77
2022/04/29 06:52:25;;;;;;;24.73;12.23;;;8.30;99.90;;;;;;5085308;28;20017;-76
2022/04/29 06:54:51;;;;;;;25.48;12.45;;;8.30;99.90;;;;;;5083428;28;20035;-78
2022/04/29 06:57:16;;;;;;;21.48;12.88;;;8.30;99.90;;;;;;5067209;28;20025;-75
2022/04/29 06:59:42;;;;;;;25.70;12.45;;;8.50;99.90;;;;;;5085100;28;20028;-77
2022/04/29 07:02:08;;;;;;;24.10;11.52;;;8.60;99.90;;;;;;5083849;28;20020;-75
2022/04/29 07:04:34;;;;;;;25.20;12.05;;;8.70;99.90;;;;;;5083662;28;20250;-75
2022/04/29 07:07:00;;;;;;;29.33;12.75;;;8.80;99.90;;;;;;5067185;28;20031;-74
2022/04/29 07:09:26;;;;;;;26.90;11.57;;;8.90;99.90;;;;;;5081987;28;20020;-74
2022/04/29 07:11:52;;;;;;;25.42;11.45;;;9.10;99.90;;;;;;5083904;28;20050;-73
2022/04/29 07:14:18;;;;;;;20.67;11.10;;;9.30;99.40;;;;;;5061951;28;20037;-73
2022/04/29 07:16:44;;;;;;;24.60;11.52;;;9.40;99.20;;;;;;5081992;28;20024;-75
2022/04/29 07:19:10;;;;;;;20.67;11.02;;;9.50;99.00;;;;;;5083384;28;20024;-72
2022/04/29 07:21:35;;;;;;;25.25;11.13;;;9.60;98.60;;;;;;5049884;28;20016;-73
2022/04/29 07:24:01;;;;;;;24.38;11.18;;;9.80;98.40;;;;;;5049555;28;20021;-75
2022/04/29 07:26:27;;;;;;;17.52;10.65;;;9.90;98.20;;;;;;5083459;28;20105;-74
2022/04/29 07:28:53;;;;;;;19.83;10.50;;;9.90;98.00;;;;;;5082129;28;20032;-73
2022/04/29 07:31:18;;;;;;;19.60;10.77;;;10.10;98.20;;;;;;5066330;28;20044;-74
2022/04/29 07:33:44;;;;;;;23.58;10.73;;;10.40;97.50;;;;;;5082996;28;20016;-73
2022/04/29 07:41:44;;;;;;;17.30;10.13;;;10.60;96.80;;;;;;5069273;28;20020;-75
2022/04/29 07:44:10;;;;;;;23.35;11.65;;;10.40;96.60;;;;;;5062813;28;20036;-73
2022/04/29 07:46:36;;;;;;;16.85;10.60;;;10.30;96.70;;;;;;5065981;28;20024;-70
2022/04/29 07:49:03;;;;;;;19.38;10.90;;;10.40;96.90;;;;;;5083894;28;20051;-76
2022/04/29 07:51:30;;;;;;;20.00;11.48;;;10.50;96.70;;;;;;5081540;28;20043;-74
2022/04/29 07:53:56;;;;;;;23.58;11.75;;;10.70;96.20;;;;;;5075713;28;20028;-74
2022/04/29 07:56:22;;;;;;;25.05;11.63;;;10.60;96.20;;;;;;5076467;28;20614;-76
2022/04/29 07:58:47;;;;;;;25.50;11.38;;;10.70;96.10;;;;;;5058282;28;20161;-75
2022/04/29 08:01:13;;;;;;;18.90;10.93;;;10.70;96.00;;;;;;5077499;28;20017;-74
2022/04/29 08:03:39;;;;;;;26.70;12.80;;;10.60;96.00;;;;;;5064376;28;20024;-73
2022/04/29 08:06:08;;;;;;;22.13;11.32;;;10.60;96.20;;;;;;5082231;28;20024;-71
2022/04/29 08:08:35;;;;;;;24.38;11.93;;;10.80;96.10;;;;;;5065824;28;20319;-71
2022/04/29 08:11:01;;;;;;;21.35;11.35;;;11.00;95.70;;;;;;5083528;28;20036;-76
2022/04/29 08:13:27;;;;;;;21.17;12.48;;;11.00;95.30;;;;;;5065795;28;20095;-73
2022/04/29 08:15:53;;;;;;;20.20;11.48;;;10.90;95.00;;;;;;5081587;28;20048;-74
2022/04/29 08:18:20;;;;;;;23.52;11.07;;;10.90;95.10;;;;;;5081976;28;20032;-72
2022/04/29 08:20:46;;;;;;;23.40;11.40;;;10.90;95.30;;;;;;5062013;28;20021;-74
2022/04/29 08:23:12;;;;;;;24.77;11.80;;;11.00;95.30;;;;;;5081583;28;20028;-74
2022/04/29 08:25:38;;;;;;;22.65;11.88;;;11.10;94.80;;;;;;5082126;28;20020;-75
2022/04/29 08:28:04;;;;;;;20.60;11.00;;;11.10;94.60;;;;;;5081304;28;20355;-73
2022/04/29 08:30:33;;;;;;;20.52;10.75;;;11.20;94.60;;;;;;5076305;28;20039;-74
2022/04/29 08:32:59;;;;;;;25.48;11.02;;;11.30;94.00;;;;;;5088096;28;20051;-71
2022/04/29 08:35:27;;;;;;;19.35;10.50;;;11.40;94.00;;;;;;5085635;28;20223;-69
2022/04/29 08:37:57;;;;;;;16.60;10.65;;;11.60;94.10;;;;;;5068042;28;20024;-74
2022/04/29 08:40:23;;;;;;;20.17;10.75;;;11.60;92.70;;;;;;5086452;28;20051;-72
2022/04/29 08:42:50;;;;;;;15.85;10.95;;;11.50;93.30;;;;;;5084578;28;20023;-71
2022/04/29 08:45:17;;;;;;;18.35;11.10;;;11.50;93.50;;;;;;5048739;28;20194;-71
2022/04/29 08:47:45;;;;;;;19.08;11.02;;;11.60;93.50;;;;;;5080469;28;20024;-70
2022/04/29 08:50:13;;;;;;;20.45;11.00;;;11.40;93.40;;;;;;5085450;28;20134;-73
2022/04/29 08:52:40;;;;;;;16.95;9.68;;;11.50;93.50;;;;;;5099769;28;20102;-71
2022/04/29 09:00:41;;;;;;;20.33;11.55;;;11.80;92.80;;;;;;5097327;28;20303;-72
2022/04/29 09:03:22;;;;;;;17.35;10.07;;;11.80;92.20;;;;;;5090026;28;20047;-74
2022/04/29 09:05:48;;;;;;;21.27;11.25;;;12.00;92.20;;;;;;5086342;28;20376;-72
2022/04/29 09:08:17;;;;;;;23.38;12.02;;;12.20;92.30;;;;;;5068738;28;20032;-76
2022/04/29 09:10:52;;;;;;;19.83;11.60;;;12.50;91.90;;;;;;5084078;28;20059;-70
2022/04/29 09:13:24;;;;;;;18.55;11.02;;;12.50;91.70;;;;;;5051807;28;20028;-75
2022/04/29 09:15:57;;;;;;;20.38;11.57;;;12.60;91.30;;;;;;5084373;28;20115;-71
2022/04/29 09:18:44;;;;;;;23.98;12.25;;;12.50;91.80;;;;;;5100463;28;20020;-73
2022/04/29 09:21:25;;;;;;;21.50;12.25;;;12.50;91.30;;;;;;5072743;28;20082;-73
2022/04/29 09:23:56;;;;;;;22.25;11.00;;;12.50;91.40;;;;;;5083490;28;20052;-73
2022/04/29 09:26:25;;;;;;;21.58;11.35;;;12.50;91.60;;;;;;5084333;28;20020;-71
2022/04/29 09:28:53;;;;;;;19.00;10.48;;;12.60;91.30;;;;;;5082683;28;20037;-72
2022/04/29 09:31:19;;;;;;;19.33;11.05;;;12.60;91.30;;;;;;5084990;28;20032;-70
2022/04/29 09:33:54;;;;;;;19.85;11.20;;;12.60;91.40;;;;;;5083701;28;20100;-70
2022/04/29 09:36:26;;;;;;;26.25;11.70;;;12.80;91.00;;;;;;5067126;28;20087;-70
2022/04/29 09:41:55;;;;;;;23.85;11.90;;;13.00;89.70;;;;;;5070807;28;20024;-69
2022/04/29 09:44:38;;;;;;;22.15;12.18;;;13.00;90.50;;;;;;5084076;28;20319;-71
2022/04/29 09:47:20;;;;;;;23.48;12.50;;;12.90;90.70;;;;;;5083722;28;20036;-69
2022/04/29 09:50:03;;;;;;;23.33;11.32;;;12.80;90.40;;;;;;5063528;28;20221;-70
2022/04/29 09:52:30;;;;;;;18.60;10.88;;;12.70;90.80;;;;;;5083060;28;20067;-72
2022/04/29 09:55:10;;;;;;;21.33;11.05;;;12.60;91.30;;;;;;5049709;28;20051;-71
2022/04/29 09:57:48;;;;;;;22.95;11.30;;;12.60;91.10;;;;;;5067385;28;20044;-71
2022/04/29 10:00:15;;;;;;;20.15;10.77;;;12.40;91.00;;;;;;5066538;28;20024;-71
2022/04/29 10:02:41;;;;;;;18.70;10.32;;;12.60;91.30;;;;;;5084903;28;20047;-72
2022/04/29 10:05:07;;;;;;;19.75;9.75;;;12.70;90.50;;;;;;5084107;28;20027;-71
2022/04/29 10:07:33;;;;;;;18.52;9.27;;;12.90;90.20;;;;;;5084554;28;20039;-74
2022/04/29 10:10:00;;;;;;;19.85;9.38;;;13.00;89.30;;;;;;5084003;28;20448;-72
2022/04/29 10:12:29;;;;;;;18.42;9.15;;;13.00;89.90;;;;;;5066702;28;20076;-71
2022/04/29 10:14:59;;;;;;;20.08;10.40;;;13.10;89.30;;;;;;5083287;28;20029;-73
2022/04/29 10:23:07;;;;;;;20.73;9.55;;;13.30;89.30;;;;;;5069406;28;20199;-71
2022/04/29 10:25:35;;;;;;;18.95;9.50;;;13.40;88.70;;;;;;5070561;28;20074;-74
2022/04/29 10:28:01;;;;;;;21.63;10.75;;;13.50;86.70;;;;;;5083459;28;20034;-71
2022/04/29 10:30:30;;;;;;;20.23;9.68;;;13.60;87.90;;;;;;5083398;28;20046;-72
2022/04/29 10:33:24;;;;;;;15.70;9.50;;;13.80;87.10;;;;;;5083267;28;20013;-74
2022/04/29 10:35:53;;;;;;;19.45;9.45;;;14.00;84.70;;;;;;5067373;28;20024;-72
2022/04/29 10:38:36;;;;;;;20.52;9.65;;;14.10;83.70;;;;;;5082739;28;20026;-71
2022/04/29 10:41:24;;;;;;;19.98;10.27;;;14.00;83.50;;;;;;5068831;28;20035;-75
2022/04/29 10:44:05;;;;;;;18.15;8.95;;;14.20;83.10;;;;;;5069322;28;20024;-72
2022/04/29 10:46:36;;;;;;;14.73;8.25;;;14.60;82.20;;;;;;5083020;28;20026;-72
2022/04/29 10:49:30;;;;;;;15.38;8.60;;;14.70;81.60;;;;;;5083262;28;20040;-75
2022/04/29 10:51:59;;;;;;;17.10;9.52;;;14.70;82.10;;;;;;5074852;28;20012;-73
2022/04/29 10:54:46;;;;;;;19.15;9.02;;;14.80;81.80;;;;;;5078961;28;20024;-71
2022/04/29 10:57:12;;;;;;;16.92;9.10;;;14.60;81.70;;;;;;5075619;28;20021;-70
2022/04/29 11:00:00;;;;;;;17.50;8.57;;;14.20;82.20;;;;;;5050507;28;20182;-71
2022/04/29 11:02:34;;;;;;;13.45;9.10;;;14.10;83.10;;;;;;5051816;28;20331;-70
2022/04/29 11:05:01;;;;;;;19.23;9.27;;;14.30;81.70;;;;;;5082422;28;20091;-71
2022/04/29 11:07:48;;;;;;;16.77;8.65;;;14.40;81.30;;;;;;5054783;28;20028;-73
2022/04/29 11:10:17;;;;;;;15.73;9.18;;;14.50;80.90;;;;;;5067970;28;20054;-72
2022/04/29 11:12:55;;;;;;;16.35;8.43;;;14.30;81.10;;;;;;5065688;28;20119;-69
2022/04/29 11:15:23;;;;;;;18.13;9.10;;;14.30;81.50;;;;;;5052196;28;20074;-70
2022/04/29 11:17:49;;;;;;;17.20;8.93;;;14.00;81.80;;;;;;5065788;28;20052;-72
2022/04/29 11:20:25;;;;;;;17.45;8.63;;;14.00;81.30;;;;;;5061832;28;20020;-72
2022/04/29 11:25:48;;;;;;;14.27;7.75;;;14.20;81.10;;;;;;5055272;28;20258;-72
2022/04/29 11:28:16;;;;;;;12.63;7.82;;;14.40;79.50;;;;;;5083658;28;20073;-73
2022/04/29 11:30:42;;;;;;;15.80;8.35;;;14.60;78.80;;;;;;5081543;28;20024;-72
2022/04/29 11:33:07;;;;;;;18.13;8.32;;;14.70;79.50;;;;;;5081533;28;20314;-73
2022/04/29 11:35:34;;;;;;;15.02;8.93;;;14.70;79.90;;;;;;5083526;28;20020;-71
2022/04/29 11:37:59;;;;;;;16.42;9.20;;;14.90;80.00;;;;;;5065663;28;20016;-71
2022/04/29 11:40:27;;;;;;;19.63;9.05;;;15.00;79.90;;;;;;5082085;28;20040;-72
2022/04/29 11:42:53;;;;;;;22.10;7.75;;;15.20;79.50;;;;;;5082299;28;20326;-71
2022/04/29 11:45:22;;;;;;;14.63;8.63;;;15.40;78.50;;;;;;5082702;28;20021;-73
2022/04/29 11:47:47;;;;;;;18.45;8.48;;;15.10;78.80;;;;;;5082433;28;20326;-71
2022/04/29 11:50:13;;;;;;;12.70;7.80;;;15.00;79.00;;;;;;5083441;28;20060;-74
2022/04/29 11:52:39;;;;;;;17.95;8.27;;;15.00;78.90;;;;;;5082374;28;20033;-70
2022/04/29 11:55:07;;;;;;;18.05;8.05;;;15.10;79.00;;;;;;5081576;28;20017;-72
2022/04/29 11:57:42;;;;;;;15.73;7.90;;;15.20;78.20;;;;;;5083244;28;20019;-70
2022/04/29 12:00:08;;;;;;;17.20;7.93;;;15.10;78.90;;;;;;5082106;28;20397;-70
2022/04/29 12:02:34;;;;;;;20.90;8.45;;;15.20;78.50;;;;;;5082497;28;20097;-70
2022/04/29 12:05:02;;;;;;;21.00;9.15;;;15.40;77.70;;;;;;5081557;28;20020;-69
2022/04/29 12:07:37;;;;;;;15.60;8.25;;;15.30;77.40;;;;;;5081083;28;20024;-72
2022/04/29 12:10:22;;;;;;;16.45;7.22;;;15.30;77.30;;;;;;5081459;28;20032;-71
2022/04/29 12:12:49;;;;;;;15.93;8.20;;;15.10;77.60;;;;;;5082098;28;20240;-70
2022/04/29 12:15:18;;;;;;;19.00;7.97;;;15.10;77.30;;;;;;5081658;28;20013;-68
2022/04/29 12:17:44;;;;;;;14.55;6.97;;;15.40;77.40;;;;;;5064957;28;20250;-71
2022/04/29 12:20:16;;;;;;;14.55;7.70;;;15.50;76.10;;;;;;5081000;28;20029;-70
2022/04/29 12:22:42;;;;;;;19.90;9.48;;;15.30;76.70;;;;;;5081388;28;20310;-70
2022/04/29 12:25:29;;;;;;;23.55;10.00;;;15.40;77.40;;;;;;5080939;28;20016;-70
2022/04/29 12:28:18;;;;;;;21.50;9.73;;;15.30;77.40;;;;;;5081900;28;20047;-68
2022/04/29 12:37:07;;;;;;;18.65;9.02;;;14.80;78.90;;;;;;5067186;28;20021;-71
2022/04/29 12:39:39;;;;;;;22.30;9.60;;;14.60;78.90;;;;;;5064707;28;20027;-70
2022/04/29 12:42:07;;;;;;;;;;;14.70;80.40;;;;;;5082061;28;20024;-70
2022/04/29 12:45:14;;;;;;;14.32;9.02;;;14.60;80.50;;;;;;5081736;28;19900;-70
2022/04/29 12:47:43;;;;;;;15.95;9.20;;;14.40;80.40;;;;;;5081783;28;20047;-72
2022/04/29 12:50:28;;;;;;;20.35;10.40;;;14.20;80.70;;;;;;5082679;28;20052;-70
2022/04/29 12:53:08;;;;;;;23.05;9.30;;;14.40;80.70;;;;;;5064615;28;20029;-68
2022/04/29 12:55:49;;;;;;;15.15;8.13;;;14.60;80.20;;;;;;5082773;28;20043;-69
2022/04/29 12:58:19;;;;;;;14.57;8.10;;;14.80;78.10;;;;;;5064723;28;20268;-71
2022/04/29 13:00:59;;;;;;;16.75;8.13;;;14.80;78.30;;;;;;5081255;28;20231;-72
2022/04/29 13:03:28;;;;;;;16.17;7.78;;;15.00;76.50;;;;;;5081593;28;20070;-68
2022/04/29 13:05:54;;;;;;;17.65;7.70;;;15.20;76.70;;;;;;5081248;28;20029;-68
2022/04/29 13:08:20;;;;;;;14.43;7.57;;;15.30;76.30;;;;;;5081339;28;20035;-69
2022/04/29 13:10:49;;;;;;;14.00;7.18;;;15.50;76.50;;;;;;5080487;28;20062;-69
2022/04/29 13:13:15;;;;;;;15.57;6.70;;;15.70;76.00;;;;;;5081768;28;20032;-70
2022/04/29 13:15:41;;;;;;;17.33;7.30;;;15.70;75.70;;;;;;5080876;28;20052;-70
2022/04/29 13:18:09;;;;;;;12.63;7.85;;;15.80;75.50;;;;;;5083061;28;20066;-70